Terminal Aerodrome Forecast
Issued by NWS

Home | Current Version | Previous Version | Text Only | Print | Product List | Glossary On
Versions: 1 2 3 4 5 6 7 8 9 10 11 12 13 14 15 16 17
000
FTUS44 KCRP 221500 AAA
TAFLRD
TAF AMD
KLRD 221558Z 2216/2312 20008KT P6SM OVC006
     FM221730 25007KT P6SM SCT008
     FM221830 24007KT P6SM FEW250
     FM230900 19003KT 4SM BR OVC012=

USA.gov is the U.S. government's official web portal to all federal, state and local government web resources and services.